GLO1742 SBBR-SBGO
Flight info
| Callsign | GLO1742 |
|---|---|
| Flight time | 0h 25m |
| Altitude | 14000 |
| Route | SIREM DCT GNV |
| Aircraft | B737/M-SDFGIKLORWXY/LB1 |
Departure
| Time | 2026-04-28 16:08 |
|---|---|
| Airport | Presidente Juscelino Kubitschek International Airport (SBBR) |
Arrival
| Time | 2026-04-28 16:33 |
|---|---|
| Airport | Santa Genoveva International Airport (SBGO) |
| Time | Latitude | Longitude | Altitude | Speed | Heading |
|---|---|---|---|---|---|
| 2026-04-28 15:53 | -15.86709 | -47.91844 | 3471 ft | 0 kts | 175° |
| 2026-04-28 15:56 | -15.86689 | -47.91845 | 3471 ft | 4 kts | 176° |
| 2026-04-28 15:56 | -15.86662 | -47.91847 | 3471 ft | 4 kts | 178° |
| 2026-04-28 15:57 | -15.86638 | -47.91846 | 3471 ft | 3 kts | 189° |
| 2026-04-28 15:57 | -15.86626 | -47.91843 | 3471 ft | 2 kts | 215° |
| 2026-04-28 15:57 | -15.86618 | -47.91834 | 3490 ft | 2 kts | 244° |
| 2026-04-28 15:57 | -15.86614 | -47.91824 | 3484 ft | 2 kts | 259° |
| 2026-04-28 15:58 | -15.86612 | -47.91812 | 3496 ft | 2 kts | 264° |
| 2026-04-28 15:58 | -15.86611 | -47.91806 | 3531 ft | 0 kts | 265° |
| 2026-04-28 16:03 | -15.86612 | -47.91807 | 3518 ft | 1 kts | 265° |
| 2026-04-28 16:04 | -15.86614 | -47.91846 | 3470 ft | 9 kts | 267° |
| 2026-04-28 16:04 | -15.86619 | -47.91920 | 3470 ft | 10 kts | 268° |
| 2026-04-28 16:04 | -15.86622 | -47.91993 | 3471 ft | 10 kts | 266° |
| 2026-04-28 16:04 | -15.86628 | -47.92065 | 3471 ft | 10 kts | 265° |
| 2026-04-28 16:05 | -15.86633 | -47.92134 | 3471 ft | 10 kts | 265° |
| 2026-04-28 16:05 | -15.86619 | -47.92199 | 3470 ft | 9 kts | 295° |
| 2026-04-28 16:05 | -15.86592 | -47.92256 | 3468 ft | 9 kts | 294° |
| 2026-04-28 16:05 | -15.86559 | -47.92306 | 3467 ft | 8 kts | 320° |
| 2026-04-28 16:06 | -15.86503 | -47.92321 | 3467 ft | 9 kts | 10° |
| 2026-04-28 16:06 | -15.86459 | -47.92279 | 3467 ft | 9 kts | 58° |
| 2026-04-28 16:06 | -15.86426 | -47.92224 | 3465 ft | 9 kts | 57° |
| 2026-04-28 16:06 | -15.86384 | -47.92170 | 3465 ft | 10 kts | 45° |
| 2026-04-28 16:07 | -15.86336 | -47.92121 | 3465 ft | 10 kts | 45° |
| 2026-04-28 16:07 | -15.86313 | -47.92064 | 3465 ft | 0 kts | 86° |
| 2026-04-28 16:07 | -15.86272 | -47.91422 | 3463 ft | 122 kts | 86° |
| 2026-04-28 16:08 | -15.86209 | -47.90303 | 3546 ft | 183 kts | 88° |
| 2026-04-28 16:08 | -15.86137 | -47.88883 | 4300 ft | 196 kts | 87° |
| 2026-04-28 16:08 | -15.86280 | -47.87497 | 5339 ft | 202 kts | 117° |
| 2026-04-28 16:09 | -15.88966 | -47.86252 | 6275 ft | 254 kts | 194° |
| 2026-04-28 16:09 | -15.90523 | -47.87233 | 6925 ft | 272 kts | 228° |
| 2026-04-28 16:09 | -15.91721 | -47.88777 | 7973 ft | 277 kts | 232° |
| 2026-04-28 16:10 | -15.94115 | -47.91999 | 10044 ft | 286 kts | 231° |
| 2026-04-28 16:10 | -15.95362 | -47.93665 | 10849 ft | 298 kts | 235° |
| 2026-04-28 16:10 | -15.97749 | -47.97355 | 12585 ft | 313 kts | 235° |
| 2026-04-28 16:11 | -16.00371 | -48.00986 | 13883 ft | 312 kts | 231° |
| 2026-04-28 16:11 | -16.03185 | -48.04494 | 13999 ft | 316 kts | 229° |
| 2026-04-28 16:12 | -16.06039 | -48.07880 | 14002 ft | 311 kts | 228° |
| 2026-04-28 16:12 | -16.07474 | -48.09557 | 14001 ft | 310 kts | 228° |
| 2026-04-28 16:13 | -16.10347 | -48.12892 | 14001 ft | 309 kts | 228° |
| 2026-04-28 16:13 | -16.11786 | -48.14556 | 14006 ft | 310 kts | 228° |
| 2026-04-28 16:13 | -16.14686 | -48.17906 | 14012 ft | 313 kts | 228° |
| 2026-04-28 16:14 | -16.17113 | -48.20709 | 14009 ft | 314 kts | 228° |
| 2026-04-28 16:14 | -16.20046 | -48.24097 | 13995 ft | 315 kts | 228° |
| 2026-04-28 16:15 | -16.22981 | -48.27489 | 14007 ft | 315 kts | 228° |
| 2026-04-28 16:15 | -16.24451 | -48.29188 | 13997 ft | 315 kts | 228° |
| 2026-04-28 16:15 | -16.25916 | -48.30882 | 14009 ft | 315 kts | 228° |
| 2026-04-28 16:16 | -16.28847 | -48.34272 | 14005 ft | 314 kts | 228° |
| 2026-04-28 16:16 | -16.30311 | -48.35966 | 14002 ft | 314 kts | 228° |
| 2026-04-28 16:17 | -16.33227 | -48.39342 | 13998 ft | 313 kts | 228° |
| 2026-04-28 16:17 | -16.34665 | -48.41007 | 13995 ft | 313 kts | 228° |
| 2026-04-28 16:17 | -16.36138 | -48.42712 | 14001 ft | 312 kts | 228° |
| 2026-04-28 16:17 | -16.37573 | -48.44376 | 14003 ft | 312 kts | 228° |
| 2026-04-28 16:18 | -16.39027 | -48.46060 | 14004 ft | 312 kts | 228° |
| 2026-04-28 16:18 | -16.40480 | -48.47744 | 14003 ft | 313 kts | 228° |
| 2026-04-28 16:18 | -16.41934 | -48.49430 | 14000 ft | 313 kts | 228° |
| 2026-04-28 16:18 | -16.43392 | -48.51121 | 14003 ft | 313 kts | 228° |
| 2026-04-28 16:19 | -16.44850 | -48.52812 | 13998 ft | 314 kts | 228° |
| 2026-04-28 16:19 | -16.46307 | -48.54504 | 13997 ft | 314 kts | 228° |
| 2026-04-28 16:19 | -16.47768 | -48.56199 | 13997 ft | 314 kts | 228° |
| 2026-04-28 16:19 | -16.49232 | -48.57898 | 13997 ft | 314 kts | 228° |
| 2026-04-28 16:20 | -16.50690 | -48.59590 | 13999 ft | 314 kts | 228° |
| 2026-04-28 16:20 | -16.52145 | -48.61279 | 14007 ft | 314 kts | 228° |
| 2026-04-28 16:20 | -16.53588 | -48.62982 | 13998 ft | 314 kts | 232° |
| 2026-04-28 16:20 | -16.54619 | -48.64957 | 14004 ft | 309 kts | 251° |
| 2026-04-28 16:21 | -16.55029 | -48.67147 | 14003 ft | 307 kts | 266° |
| 2026-04-28 16:21 | -16.55070 | -48.69363 | 14011 ft | 305 kts | 270° |
| 2026-04-28 16:21 | -16.55039 | -48.71578 | 13999 ft | 306 kts | 271° |
| 2026-04-28 16:21 | -16.54997 | -48.73811 | 13746 ft | 310 kts | 271° |
| 2026-04-28 16:22 | -16.54958 | -48.76063 | 13431 ft | 312 kts | 270° |
| 2026-04-28 16:22 | -16.54925 | -48.78319 | 13058 ft | 310 kts | 270° |
| 2026-04-28 16:22 | -16.54897 | -48.80558 | 12653 ft | 308 kts | 270° |
| 2026-04-28 16:22 | -16.54874 | -48.82778 | 12248 ft | 306 kts | 270° |
| 2026-04-28 16:23 | -16.54853 | -48.84994 | 11847 ft | 305 kts | 270° |
| 2026-04-28 16:23 | -16.54834 | -48.87200 | 11445 ft | 303 kts | 270° |
| 2026-04-28 16:23 | -16.54816 | -48.89394 | 11030 ft | 302 kts | 270° |
| 2026-04-28 16:23 | -16.54797 | -48.91582 | 10616 ft | 301 kts | 270° |
| 2026-04-28 16:24 | -16.54779 | -48.93761 | 10205 ft | 300 kts | 270° |
| 2026-04-28 16:24 | -16.54761 | -48.95901 | 10061 ft | 290 kts | 270° |
| 2026-04-28 16:24 | -16.54743 | -48.97987 | 9710 ft | 288 kts | 270° |
| 2026-04-28 16:24 | -16.54725 | -49.00064 | 9386 ft | 285 kts | 270° |
| 2026-04-28 16:25 | -16.54709 | -49.02131 | 8994 ft | 284 kts | 270° |
| 2026-04-28 16:25 | -16.54691 | -49.04191 | 8629 ft | 283 kts | 270° |
| 2026-04-28 16:25 | -16.54679 | -49.05550 | 8368 ft | 283 kts | 270° |
| 2026-04-28 16:25 | -16.54654 | -49.08257 | 7887 ft | 282 kts | 270° |
| 2026-04-28 16:26 | -16.54636 | -49.10293 | 7511 ft | 280 kts | 270° |
| 2026-04-28 16:26 | -16.54608 | -49.12322 | 7090 ft | 281 kts | 274° |
| 2026-04-28 16:26 | -16.54092 | -49.14274 | 6813 ft | 276 kts | 295° |
| 2026-04-28 16:26 | -16.53167 | -49.16008 | 6578 ft | 271 kts | 300° |
| 2026-04-28 16:27 | -16.52208 | -49.17652 | 6505 ft | 257 kts | 301° |
| 2026-04-28 16:27 | -16.51312 | -49.19201 | 6392 ft | 242 kts | 300° |
| 2026-04-28 16:27 | -16.49848 | -49.22083 | 6171 ft | 209 kts | 285° |
| 2026-04-28 16:28 | -16.49605 | -49.23505 | 6060 ft | 191 kts | 272° |
| 2026-04-28 16:28 | -16.49666 | -49.24826 | 5874 ft | 177 kts | 260° |
| 2026-04-28 16:28 | -16.49966 | -49.26055 | 5544 ft | 174 kts | 250° |
| 2026-04-28 16:28 | -16.50494 | -49.27188 | 5191 ft | 173 kts | 239° |
| 2026-04-28 16:29 | -16.52033 | -49.28935 | 4771 ft | 161 kts | 216° |
| 2026-04-28 16:29 | -16.54013 | -49.29942 | 4180 ft | 159 kts | 195° |
| 2026-04-28 16:30 | -16.55100 | -49.30137 | 3955 ft | 159 kts | 184° |
| 2026-04-28 16:30 | -16.56196 | -49.30128 | 3795 ft | 161 kts | 174° |
| 2026-04-28 16:30 | -16.57279 | -49.29947 | 3662 ft | 153 kts | 168° |
| 2026-04-28 16:30 | -16.58235 | -49.29551 | 3556 ft | 145 kts | 150° |
| 2026-04-28 16:31 | -16.59049 | -49.28944 | 3475 ft | 144 kts | 140° |
| 2026-04-28 16:31 | -16.59743 | -49.28181 | 3442 ft | 146 kts | 128° |
| 2026-04-28 16:31 | -16.60319 | -49.27280 | 3277 ft | 153 kts | 122° |
| 2026-04-28 16:31 | -16.60870 | -49.26317 | 3104 ft | 155 kts | 121° |
| 2026-04-28 16:32 | -16.61397 | -49.25360 | 2910 ft | 153 kts | 121° |
| 2026-04-28 16:32 | -16.62437 | -49.23460 | 2548 ft | 148 kts | 121° |
| 2026-04-28 16:32 | -16.62946 | -49.22557 | 2461 ft | 136 kts | 121° |
| 2026-04-28 16:33 | -16.63327 | -49.21882 | 2464 ft | 77 kts | 120° |
| 2026-04-28 16:33 | -16.63435 | -49.21691 | 2464 ft | 33 kts | 120° |
| 2026-04-28 16:33 | -16.63470 | -49.21508 | 2461 ft | 13 kts | 96° |
| 2026-04-28 16:33 | -16.63467 | -49.21421 | 2461 ft | 12 kts | 60° |
| 2026-04-28 16:34 | -16.63398 | -49.21419 | 2462 ft | 12 kts | 312° |
| 2026-04-28 16:34 | -16.63356 | -49.21490 | 2463 ft | 11 kts | 299° |
| 2026-04-28 16:34 | -16.63317 | -49.21559 | 2463 ft | 11 kts | 301° |
| 2026-04-28 16:34 | -16.63278 | -49.21627 | 2463 ft | 11 kts | 299° |
| 2026-04-28 16:35 | -16.63242 | -49.21693 | 2463 ft | 10 kts | 297° |
| 2026-04-28 16:35 | -16.63212 | -49.21760 | 2461 ft | 10 kts | 299° |
| 2026-04-28 16:35 | -16.63172 | -49.21818 | 2459 ft | 10 kts | 301° |
| 2026-04-28 16:35 | -16.63137 | -49.21879 | 2460 ft | 10 kts | 301° |
| 2026-04-28 16:36 | -16.63104 | -49.21937 | 2458 ft | 9 kts | 300° |
| 2026-04-28 16:36 | -16.63071 | -49.21994 | 2462 ft | 9 kts | 301° |
| 2026-04-28 16:36 | -16.63020 | -49.22032 | 2458 ft | 9 kts | 5° |
| 2026-04-28 16:36 | -16.62990 | -49.21995 | 2460 ft | 8 kts | 73° |
| 2026-04-28 16:37 | -16.62975 | -49.21937 | 2458 ft | 9 kts | 76° |
| 2026-04-28 16:37 | -16.62961 | -49.21871 | 2460 ft | 11 kts | 78° |
| 2026-04-28 16:37 | -16.62944 | -49.21792 | 2462 ft | 11 kts | 76° |
| 2026-04-28 16:38 | -16.62935 | -49.21641 | 2462 ft | 11 kts | 133° |
| 2026-04-28 16:38 | -16.62949 | -49.21598 | 2463 ft | 5 kts | 88° |
| 2026-04-28 16:38 | -16.62938 | -49.21563 | 2461 ft | 5 kts | 70° |
| 2026-04-28 16:38 | -16.62934 | -49.21552 | 2461 ft | 0 kts | 70° |